createdAt,value
2023-09-16T00:00:24.497Z,97912.97
2023-09-16T00:04:26.646Z,97918.38
2023-09-16T00:08:29.013Z,97920.03
2023-09-16T00:12:31.126Z,97928.72
2023-09-16T00:16:33.202Z,97924.38
2023-09-16T00:20:35.696Z,97921.75
2023-09-16T00:24:38.777Z,97922.94
2023-09-16T00:28:41.416Z,97919.56
2023-09-16T00:32:44.384Z,97920.59
2023-09-16T00:36:46.564Z,97918.13
2023-09-16T00:40:48.711Z,97911.16
2023-09-16T00:44:50.940Z,97906.06
2023-09-16T00:48:53.128Z,97907.00
2023-09-16T00:52:57.885Z,97904.38
2023-09-16T00:57:02.459Z,97902.19
2023-09-16T01:01:05.939Z,97902.81
2023-09-16T01:05:18.410Z,97897.66
2023-09-16T01:09:24.022Z,97898.97
2023-09-16T01:13:27.169Z,97903.78
2023-09-16T01:17:35.069Z,97899.72
2023-09-16T01:21:37.389Z,97904.66
2023-09-16T01:25:39.487Z,97894.69
2023-09-16T01:29:42.027Z,97888.16
2023-09-16T01:33:52.247Z,97875.00
2023-09-16T01:37:54.736Z,97889.88
2023-09-16T01:41:59.877Z,97879.56
2023-09-16T01:46:02.125Z,97884.50
2023-09-16T01:50:05.558Z,97889.59
2023-09-16T01:54:08.798Z,97891.28
2023-09-16T01:58:11.048Z,97899.88
2023-09-16T02:02:13.117Z,97896.38
2023-09-16T02:06:15.179Z,97898.00
2023-09-16T02:10:17.580Z,97891.28
2023-09-16T02:14:20.315Z,97895.03
2023-09-16T02:18:22.368Z,97895.22
2023-09-16T02:22:24.651Z,97899.53
2023-09-16T02:26:26.722Z,97897.50
2023-09-16T02:30:28.775Z,97893.94
2023-09-16T02:34:33.058Z,97893.53
2023-09-16T02:38:35.368Z,97892.16
2023-09-16T02:42:37.626Z,97890.63
2023-09-16T02:46:39.860Z,97891.91
2023-09-16T02:50:42.000Z,97895.19
2023-09-16T02:54:44.185Z,97894.69
2023-09-16T02:58:46.467Z,97899.09
2023-09-16T03:02:52.212Z,97894.03
2023-09-16T03:06:54.615Z,97893.75
2023-09-16T03:11:03.347Z,97885.91
2023-09-16T03:15:07.939Z,97881.75
2023-09-16T03:19:11.198Z,97879.44
2023-09-16T03:23:13.795Z,97878.44
2023-09-16T03:27:16.601Z,97867.66
2023-09-16T03:31:18.788Z,97874.47
2023-09-16T03:35:22.510Z,97868.84
2023-09-16T03:39:25.441Z,97866.59
2023-09-16T03:43:28.540Z,97865.41
2023-09-16T03:47:30.712Z,97864.31
2023-09-16T03:51:36.328Z,97865.66
2023-09-16T03:55:39.035Z,97862.91
2023-09-16T03:59:43.073Z,97859.66
2023-09-16T04:03:45.387Z,97860.28
2023-09-16T04:07:48.251Z,97865.16
2023-09-16T04:11:50.978Z,97850.56
2023-09-16T04:15:53.127Z,97836.47
2023-09-16T04:19:55.248Z,97847.81
2023-09-16T04:23:57.308Z,97845.13
2023-09-16T04:28:00.331Z,97850.72
2023-09-16T04:32:03.243Z,97854.41
2023-09-16T04:36:07.282Z,97850.38
2023-09-16T04:40:12.607Z,97852.13
2023-09-16T04:44:14.828Z,97844.25
2023-09-16T04:48:17.691Z,97845.84
2023-09-16T04:52:19.971Z,97846.69
2023-09-16T04:56:22.734Z,97845.00
2023-09-16T05:00:34.308Z,97850.78
2023-09-16T05:04:38.103Z,97844.19
2023-09-16T05:08:40.436Z,97844.63
2023-09-16T05:12:43.073Z,97845.41
2023-09-16T05:16:45.265Z,97852.03
2023-09-16T05:20:51.908Z,97851.88
2023-09-16T05:24:54.689Z,97846.28
2023-09-16T05:28:57.988Z,97852.91
2023-09-16T05:33:03.334Z,97844.06
2023-09-16T05:37:05.676Z,97838.72
2023-09-16T05:41:08.095Z,97843.91
2023-09-16T05:45:11.475Z,97838.47
2023-09-16T05:49:14.504Z,97837.63
2023-09-16T05:53:16.666Z,97834.72
2023-09-16T05:57:19.055Z,97835.91
2023-09-16T06:01:21.360Z,97840.41
2023-09-16T06:05:24.057Z,97840.63
2023-09-16T06:09:26.268Z,97832.94
2023-09-16T06:13:28.354Z,97841.84
2023-09-16T06:17:30.451Z,97848.84
2023-09-16T06:21:33.614Z,97845.25
2023-09-16T06:25:35.967Z,97853.97
2023-09-16T06:29:38.477Z,97844.00
2023-09-16T06:33:40.825Z,97828.44
2023-09-16T06:37:42.915Z,97831.03
2023-09-16T06:41:45.031Z,97845.28
2023-09-16T06:45:50.976Z,97840.19
2023-09-16T06:49:53.809Z,97841.41
2023-09-16T06:53:55.860Z,97842.78
2023-09-16T06:57:57.916Z,97846.72
2023-09-16T07:02:00.092Z,97846.69
2023-09-16T07:06:02.219Z,97840.41
2023-09-16T07:10:04.712Z,97837.06
2023-09-16T07:14:06.839Z,97841.75
2023-09-16T07:18:08.937Z,97851.50
2023-09-16T07:22:11.108Z,97848.75
2023-09-16T07:26:13.270Z,97851.19
2023-09-16T07:30:18.187Z,97848.09
2023-09-16T07:34:22.005Z,97852.81
2023-09-16T07:38:24.186Z,97862.22
2023-09-16T07:42:26.474Z,97856.28
2023-09-16T07:46:28.593Z,97865.25
2023-09-16T07:50:30.697Z,97862.97
2023-09-16T07:54:32.800Z,97873.13
2023-09-16T07:58:34.888Z,97866.53
2023-09-16T08:02:37.003Z,97867.53
2023-09-16T08:06:39.175Z,97866.84
2023-09-16T08:10:41.231Z,97865.16
2023-09-16T08:14:43.274Z,97873.25
2023-09-16T08:18:45.650Z,97880.41
2023-09-16T08:22:48.150Z,97876.13
2023-09-16T08:26:50.195Z,97874.19
2023-09-16T08:30:52.405Z,97882.50
2023-09-16T08:34:54.693Z,97879.03
2023-09-16T08:38:56.752Z,97892.31
2023-09-16T08:43:16.267Z,97885.91
2023-09-16T08:47:28.914Z,97895.56
2023-09-16T08:51:35.511Z,97890.22
2023-09-16T08:55:37.878Z,97897.72
2023-09-16T08:59:41.415Z,97892.66
2023-09-16T09:03:43.557Z,97898.81
2023-09-16T09:07:45.910Z,97889.34
2023-09-16T09:11:48.839Z,97892.94
2023-09-16T09:15:56.397Z,97887.97
2023-09-16T09:19:58.862Z,97889.59
2023-09-16T09:24:00.904Z,97890.53
2023-09-16T09:28:04.206Z,97896.53
2023-09-16T09:32:06.607Z,97900.97
2023-09-16T09:36:28.555Z,97903.69
2023-09-16T09:40:30.625Z,97900.00
2023-09-16T09:44:33.635Z,97892.78
2023-09-16T09:48:38.366Z,97897.03
2023-09-16T09:52:46.110Z,97899.06
2023-09-16T09:56:48.315Z,97893.50
2023-09-16T10:00:52.121Z,97899.47
2023-09-16T10:05:03.974Z,97891.41
2023-09-16T10:09:06.187Z,97899.56
2023-09-16T10:13:09.406Z,97900.00
2023-09-16T10:17:13.889Z,97889.38
2023-09-16T10:21:16.357Z,97900.75
2023-09-16T10:25:20.020Z,97891.78
2023-09-16T10:29:23.189Z,97877.75
2023-09-16T10:33:26.099Z,97888.75
2023-09-16T10:37:29.025Z,97889.34
2023-09-16T10:41:32.859Z,97888.50
2023-09-16T10:45:35.432Z,97883.28
2023-09-16T10:49:37.680Z,97885.66
2023-09-16T10:53:41.854Z,97881.16
2023-09-16T10:57:59.158Z,97881.16
2023-09-16T11:02:37.313Z,97882.81
2023-09-16T11:06:39.513Z,97877.06
2023-09-16T11:10:42.068Z,97876.06
2023-09-16T11:14:45.017Z,97879.25
2023-09-16T11:18:50.418Z,97888.38
2023-09-16T11:22:52.850Z,97876.06
2023-09-16T11:26:57.452Z,97870.97
2023-09-16T11:31:05.643Z,97875.41
2023-09-16T11:35:07.955Z,97864.94
2023-09-16T11:39:11.318Z,97864.03
2023-09-16T11:43:13.437Z,97866.66
2023-09-16T11:47:17.709Z,97862.78
2023-09-16T11:51:22.727Z,97856.91
2023-09-16T11:55:28.023Z,97848.50
2023-09-16T11:59:30.198Z,97850.41
2023-09-16T12:03:32.394Z,97842.16
2023-09-16T12:07:36.786Z,97837.88
2023-09-16T12:11:39.364Z,97841.63
2023-09-16T12:15:41.444Z,97829.59
2023-09-16T12:19:53.719Z,97834.88
2023-09-16T12:23:55.868Z,97841.00
2023-09-16T12:27:58.202Z,97834.84
2023-09-16T12:32:19.241Z,97837.75
2023-09-16T12:36:25.858Z,97827.22
2023-09-16T12:40:28.056Z,97828.06
2023-09-16T12:44:32.301Z,97824.91
2023-09-16T12:48:35.505Z,97816.09
2023-09-16T12:52:37.645Z,97823.38
2023-09-16T12:56:49.006Z,97813.50
2023-09-16T13:00:52.542Z,97809.34
2023-09-16T13:05:18.329Z,97799.66
2023-09-16T13:09:21.051Z,97800.66
2023-09-16T13:13:26.432Z,97792.69
2023-09-16T13:17:28.825Z,97798.72
2023-09-16T13:21:32.539Z,97794.72
2023-09-16T13:25:41.627Z,97790.72
2023-09-16T13:29:43.734Z,97780.69
2023-09-16T13:34:05.167Z,97787.09
2023-09-16T13:38:10.005Z,97782.03
2023-09-16T13:42:12.707Z,97783.41
2023-09-16T13:46:14.965Z,97776.72
2023-09-16T13:50:21.973Z,97785.09
2023-09-16T13:54:24.674Z,97781.44
2023-09-16T13:58:27.547Z,97779.75
2023-09-16T14:02:29.749Z,97778.56
2023-09-16T14:06:31.809Z,97776.38
2023-09-16T14:10:33.976Z,97782.59
2023-09-16T14:14:36.016Z,97784.78
2023-09-16T14:18:38.159Z,97783.44
2023-09-16T14:22:40.283Z,97781.25
2023-09-16T14:26:42.303Z,97784.81
2023-09-16T14:30:44.335Z,97786.66
2023-09-16T14:34:46.361Z,97777.25
2023-09-16T14:38:49.998Z,97771.03
2023-09-16T14:42:52.393Z,97766.16
2023-09-16T14:46:56.373Z,97768.69
2023-09-16T14:50:59.489Z,97763.31
2023-09-16T14:55:06.948Z,97766.00
2023-09-16T14:59:10.474Z,97769.84
2023-09-16T15:03:12.559Z,97769.34
2023-09-16T15:07:14.646Z,97773.03
2023-09-16T15:11:16.757Z,97771.69
2023-09-16T15:15:18.917Z,97776.91
2023-09-16T15:19:20.960Z,97772.69
2023-09-16T15:23:23.128Z,97771.03
2023-09-16T15:27:25.230Z,97767.31
2023-09-16T15:31:27.595Z,97767.31
2023-09-16T15:35:33.619Z,97764.81
2023-09-16T15:39:35.813Z,97762.13
2023-09-16T15:43:37.886Z,97769.66
2023-09-16T15:47:40.822Z,97769.66
2023-09-16T15:51:42.880Z,97775.38
2023-09-16T15:55:47.137Z,97767.47
2023-09-16T15:59:49.224Z,97778.03
2023-09-16T16:03:51.509Z,97777.00
2023-09-16T16:07:53.861Z,97777.13
2023-09-16T16:11:55.913Z,97775.25
2023-09-16T16:15:58.368Z,97774.22
2023-09-16T16:20:00.598Z,97777.56
2023-09-16T16:24:02.661Z,97780.03
2023-09-16T16:28:05.516Z,97793.78
2023-09-16T16:32:07.597Z,97795.59
2023-09-16T16:36:09.806Z,97785.81
2023-09-16T16:40:11.906Z,97793.75
2023-09-16T16:44:14.019Z,97788.22
2023-09-16T16:48:16.107Z,97788.31
2023-09-16T16:52:19.523Z,97786.72
2023-09-16T16:56:21.635Z,97790.53
2023-09-16T17:00:23.756Z,97801.88
2023-09-16T17:04:25.918Z,97792.09
2023-09-16T17:08:28.020Z,97801.75
2023-09-16T17:12:30.028Z,97796.09
2023-09-16T17:16:32.591Z,97801.97
2023-09-16T17:20:34.958Z,97809.69
2023-09-16T17:24:38.347Z,97812.31
2023-09-16T17:28:40.425Z,97803.50
2023-09-16T17:32:42.664Z,97805.38
2023-09-16T17:36:44.932Z,97807.28
2023-09-16T17:40:47.205Z,97806.88
2023-09-16T17:44:49.355Z,97815.34
2023-09-16T17:48:51.592Z,97815.78
2023-09-16T17:52:53.693Z,97811.72
2023-09-16T17:56:55.737Z,97802.06
2023-09-16T18:00:58.008Z,97801.13
2023-09-16T18:05:00.961Z,97805.09
2023-09-16T18:09:03.198Z,97814.41
2023-09-16T18:13:05.738Z,97818.63
2023-09-16T18:17:08.011Z,97810.38
2023-09-16T18:21:11.562Z,97821.78
2023-09-16T18:25:13.939Z,97812.22
2023-09-16T18:29:16.433Z,97819.72
2023-09-16T18:33:22.005Z,97822.94
2023-09-16T18:37:24.092Z,97834.59
2023-09-16T18:41:26.179Z,97832.22
2023-09-16T18:45:28.769Z,97836.19
2023-09-16T18:49:32.873Z,97839.72
2023-09-16T18:53:35.125Z,97848.16
2023-09-16T18:57:38.047Z,97852.38
2023-09-16T19:01:40.184Z,97854.75
2023-09-16T19:05:42.269Z,97856.69
2023-09-16T19:09:44.353Z,97853.63
2023-09-16T19:13:46.754Z,97850.50
2023-09-16T19:17:48.834Z,97852.75
2023-09-16T19:21:51.784Z,97856.69
2023-09-16T19:25:54.010Z,97868.31
2023-09-16T19:29:56.106Z,97869.88
2023-09-16T19:33:58.549Z,97865.91
2023-09-16T19:38:00.771Z,97867.31
2023-09-16T19:42:02.960Z,97866.59
2023-09-16T19:46:09.296Z,97873.78
2023-09-16T19:50:11.538Z,97860.00
2023-09-16T19:54:13.571Z,97857.00
2023-09-16T19:58:15.680Z,97859.63
2023-09-16T20:02:17.843Z,97852.00
2023-09-16T20:06:20.411Z,97850.56
2023-09-16T20:10:22.649Z,97854.22
2023-09-16T20:14:25.719Z,97851.41
2023-09-16T20:18:27.885Z,97857.72
2023-09-16T20:22:29.995Z,97859.94
2023-09-16T20:26:32.200Z,97862.03
2023-09-16T20:30:34.331Z,97862.03
2023-09-16T20:34:36.487Z,97860.63
2023-09-16T20:38:38.635Z,97865.38
2023-09-16T20:42:40.857Z,97869.88
2023-09-16T20:46:43.079Z,97866.63
2023-09-16T20:50:45.304Z,97867.88
2023-09-16T20:54:47.538Z,97877.94
2023-09-16T20:58:49.675Z,97867.53
2023-09-16T21:02:51.846Z,97868.53
2023-09-16T21:06:53.961Z,97873.66
2023-09-16T21:10:56.015Z,97879.28
2023-09-16T21:14:58.082Z,97869.97
2023-09-16T21:19:00.434Z,97866.47
2023-09-16T21:23:02.490Z,97858.75
2023-09-16T21:27:04.944Z,97846.28
2023-09-16T21:31:07.441Z,97840.91
2023-09-16T21:35:09.601Z,97834.03
2023-09-16T21:39:11.972Z,97828.22
2023-09-16T21:43:14.835Z,97821.03
2023-09-16T21:47:17.113Z,97824.28
2023-09-16T21:51:19.190Z,97819.28
2023-09-16T21:55:21.531Z,97834.75
2023-09-16T21:59:24.397Z,97835.03
2023-09-16T22:03:26.613Z,97841.53
2023-09-16T22:07:28.805Z,97836.03
2023-09-16T22:11:31.203Z,97822.06
2023-09-16T22:15:35.068Z,97813.47
2023-09-16T22:19:37.180Z,97811.75
2023-09-16T22:23:39.273Z,97800.41
2023-09-16T22:27:41.326Z,97795.47
2023-09-16T22:31:43.564Z,97794.97
2023-09-16T22:35:45.649Z,97795.56
2023-09-16T22:39:56.652Z,97804.25
2023-09-16T22:43:59.470Z,97792.88
2023-09-16T22:48:01.593Z,97793.63
2023-09-16T22:52:04.112Z,97799.16
2023-09-16T22:56:06.206Z,97804.63
2023-09-16T23:00:09.695Z,97798.72
2023-09-16T23:04:11.850Z,97799.81
2023-09-16T23:08:13.963Z,97795.19
2023-09-16T23:12:16.012Z,97798.56
2023-09-16T23:16:18.242Z,97794.44
2023-09-16T23:20:20.533Z,97798.81
2023-09-16T23:24:23.040Z,97800.88
2023-09-16T23:28:25.145Z,97808.00
2023-09-16T23:32:27.317Z,97802.41
2023-09-16T23:36:29.460Z,97803.31
2023-09-16T23:40:31.609Z,97798.34
2023-09-16T23:44:33.699Z,97796.06
2023-09-16T23:48:35.823Z,97795.94
2023-09-16T23:52:38.267Z,97794.47
2023-09-16T23:56:40.411Z,97793.28
